createdAt,value
2019-05-25T00:04:54.660Z,97889.83
2019-05-25T00:10:16.654Z,97895.17
2019-05-25T00:15:38.064Z,97902.88
2019-05-25T00:20:59.798Z,97894.20
2019-05-25T00:26:21.527Z,97896.55
2019-05-25T00:31:43.118Z,97884.96
2019-05-25T00:37:04.751Z,97895.03
2019-05-25T00:42:26.707Z,97885.28
2019-05-25T00:47:48.649Z,97891.92
2019-05-25T00:53:10.407Z,97891.88
2019-05-25T00:58:32.453Z,97905.55
2019-05-25T01:03:54.256Z,97902.17
2019-05-25T01:09:15.577Z,97901.20
2019-05-25T01:14:37.312Z,97887.84
2019-05-25T01:19:58.763Z,97890.95
2019-05-25T01:25:20.869Z,97894.66
2019-05-25T01:30:42.737Z,97890.16
2019-05-25T01:36:04.105Z,97886.20
2019-05-25T01:41:25.793Z,97895.56
2019-05-25T01:46:47.634Z,97888.41
2019-05-25T01:52:09.148Z,97896.28
2019-05-25T01:57:31.034Z,97890.31
2019-05-25T02:02:52.551Z,97900.95
2019-05-25T02:08:14.133Z,97892.94
2019-05-25T02:13:35.544Z,97900.47
2019-05-25T02:18:57.080Z,97900.09
2019-05-25T02:24:18.661Z,97893.09
2019-05-25T02:29:40.297Z,97911.30
2019-05-25T02:35:02.301Z,97891.89
2019-05-25T02:40:24.673Z,97906.92
2019-05-25T02:45:46.506Z,97910.28
2019-05-25T02:51:09.997Z,97902.94
2019-05-25T02:56:31.898Z,97918.03
2019-05-25T03:01:53.700Z,97924.55
2019-05-25T03:07:15.465Z,97920.56
2019-05-25T03:12:38.115Z,97915.76
2019-05-25T03:17:59.846Z,97920.41
2019-05-25T03:23:21.647Z,97918.76
2019-05-25T03:28:43.510Z,97939.08
2019-05-25T03:34:04.980Z,97932.70
2019-05-25T03:39:26.741Z,97932.53
2019-05-25T03:44:48.794Z,97946.67
2019-05-25T03:50:10.688Z,97950.47
2019-05-25T03:55:32.270Z,97942.60
2019-05-25T04:00:53.806Z,97954.91
2019-05-25T04:06:15.342Z,97961.19
2019-05-25T04:11:36.988Z,97956.34
2019-05-25T04:16:58.729Z,97959.30
2019-05-25T04:22:20.257Z,97959.75
2019-05-25T04:27:41.894Z,97960.73
2019-05-25T04:33:03.548Z,97973.87
2019-05-25T04:38:24.989Z,97970.02
2019-05-25T04:43:46.833Z,97983.86
2019-05-25T04:49:08.785Z,97970.09
2019-05-25T04:54:30.339Z,97964.03
2019-05-25T04:59:52.023Z,97973.86
2019-05-25T05:05:14.302Z,97974.22
2019-05-25T05:10:35.964Z,97974.22
2019-05-25T05:15:57.511Z,97988.72
2019-05-25T05:21:19.055Z,98002.70
2019-05-25T05:26:54.764Z,97999.33
2019-05-25T05:32:04.695Z,98008.03
2019-05-25T05:37:26.755Z,97999.20
2019-05-25T05:42:51.165Z,98016.11
2019-05-25T05:48:13.501Z,98018.26
2019-05-25T05:53:38.098Z,98018.26
2019-05-25T05:58:59.712Z,98011.22
2019-05-25T06:04:22.020Z,98023.62
2019-05-25T06:09:44.076Z,98023.62
2019-05-25T06:15:05.819Z,98021.61
2019-05-25T06:20:28.018Z,98021.61
2019-05-25T06:25:57.347Z,98039.54
2019-05-25T06:31:19.395Z,98051.17
2019-05-25T06:36:41.290Z,98016.00
2019-05-25T06:42:03.021Z,98016.00
2019-05-25T06:47:24.839Z,98030.84
2019-05-25T06:52:46.802Z,98021.25
2019-05-25T06:58:08.482Z,98050.73
2019-05-25T07:03:30.439Z,98032.44
2019-05-25T07:08:52.085Z,98047.80
2019-05-25T07:14:14.004Z,98035.64
2019-05-25T07:19:36.410Z,98049.45
2019-05-25T07:24:58.224Z,98039.60
2019-05-25T07:30:20.106Z,98045.14
2019-05-25T07:35:41.899Z,98046.73
2019-05-25T07:41:03.460Z,98045.39
2019-05-25T07:46:25.400Z,98050.32
2019-05-25T07:51:47.220Z,98063.18
2019-05-25T07:57:09.387Z,98058.80
2019-05-25T08:02:31.382Z,98056.33
2019-05-25T08:07:53.214Z,98057.16
2019-05-25T08:13:15.446Z,98062.31
2019-05-25T08:18:36.986Z,98057.51
2019-05-25T08:23:58.506Z,98060.45
2019-05-25T08:29:19.725Z,98074.56
2019-05-25T08:34:41.477Z,98066.64
2019-05-25T08:40:03.318Z,98076.91
2019-05-25T08:45:30.561Z,98089.55
2019-05-25T08:50:52.847Z,98129.97
2019-05-25T08:56:14.857Z,98103.19
2019-05-25T09:01:36.235Z,98096.53
2019-05-25T09:06:58.122Z,98106.25
2019-05-25T09:12:19.775Z,98113.59
2019-05-25T09:17:45.547Z,98115.62
2019-05-25T09:23:06.880Z,98132.89
2019-05-25T09:28:28.738Z,98133.59
2019-05-25T09:33:50.406Z,98126.02
2019-05-25T09:39:12.412Z,98136.46
2019-05-25T09:44:34.310Z,98138.82
2019-05-25T09:49:56.203Z,98129.47
2019-05-25T09:55:17.937Z,98131.50
2019-05-25T10:00:40.242Z,98142.98
2019-05-25T10:06:10.800Z,98140.97
2019-05-25T10:11:26.505Z,98135.25
2019-05-25T10:16:48.147Z,98126.37
2019-05-25T10:22:09.705Z,98124.34
2019-05-25T10:27:34.089Z,98109.80
2019-05-25T10:32:54.979Z,98116.99
2019-05-25T10:38:16.338Z,98114.48
2019-05-25T10:43:38.129Z,98099.00
2019-05-25T10:49:00.073Z,98116.76
2019-05-25T10:54:21.665Z,98113.14
2019-05-25T10:59:52.481Z,98093.91
2019-05-25T11:05:07.937Z,98100.55
2019-05-25T11:10:29.940Z,98105.87
2019-05-25T11:15:51.626Z,98106.96
2019-05-25T11:21:13.335Z,98094.24
2019-05-25T11:26:34.858Z,98099.42
2019-05-25T11:32:01.163Z,98093.89
2019-05-25T11:37:20.428Z,98105.21
2019-05-25T11:42:42.358Z,98077.38
2019-05-25T11:48:04.486Z,98093.52
2019-05-25T11:53:28.383Z,98088.44
2019-05-25T11:58:50.540Z,98078.94
2019-05-25T12:04:12.405Z,98088.86
2019-05-25T12:09:34.421Z,98065.80
2019-05-25T12:14:56.296Z,98069.81
2019-05-25T12:20:18.263Z,98076.42
2019-05-25T12:25:41.645Z,98080.50
2019-05-25T12:31:03.470Z,98069.00
2019-05-25T12:36:25.252Z,98070.58
2019-05-25T12:41:47.261Z,98071.37
2019-05-25T12:47:09.239Z,98062.44
2019-05-25T12:52:31.065Z,98064.93
2019-05-25T12:57:52.919Z,98048.13
2019-05-25T13:03:15.109Z,98053.29
2019-05-25T13:08:37.096Z,98066.58
2019-05-25T13:14:06.326Z,98077.73
2019-05-25T13:19:22.112Z,98087.59
2019-05-25T13:24:44.106Z,98076.78
2019-05-25T13:30:06.142Z,98073.17
2019-05-25T13:35:27.634Z,98082.33
2019-05-25T13:40:49.132Z,98087.05
2019-05-25T13:46:11.055Z,98080.46
2019-05-25T13:51:32.907Z,98075.24
2019-05-25T13:56:54.789Z,98080.05
2019-05-25T14:02:16.270Z,98081.33
2019-05-25T14:07:37.959Z,98085.53
2019-05-25T14:12:59.233Z,98084.98
2019-05-25T14:18:22.160Z,98086.10
2019-05-25T14:23:44.300Z,98089.95
2019-05-25T14:29:06.858Z,98089.72
2019-05-25T14:34:29.434Z,98074.48
2019-05-25T14:39:51.695Z,98076.06
2019-05-25T14:45:13.976Z,98105.36
2019-05-25T14:50:35.599Z,98114.50
2019-05-25T14:55:57.428Z,98147.27
2019-05-25T15:01:19.189Z,98110.05
2019-05-25T15:06:41.014Z,98112.77
2019-05-25T15:12:04.335Z,98094.05
2019-05-25T15:17:26.638Z,98104.72
2019-05-25T15:22:48.718Z,98110.73
2019-05-25T15:28:10.286Z,98114.41
2019-05-25T15:33:32.197Z,98123.83
2019-05-25T15:38:53.987Z,98121.85
2019-05-25T15:44:16.238Z,98127.73
2019-05-25T15:49:37.867Z,98131.22
2019-05-25T15:54:59.439Z,98127.36
2019-05-25T16:00:24.890Z,98126.87
2019-05-25T16:05:47.727Z,98134.13
2019-05-25T16:11:09.351Z,98134.53
2019-05-25T16:16:31.058Z,98130.33
2019-05-25T16:21:53.127Z,98140.23
2019-05-25T16:27:15.292Z,98142.99
2019-05-25T16:33:07.055Z,98140.84
2019-05-25T16:38:00.771Z,98152.62
2019-05-25T16:43:22.584Z,98156.06
2019-05-25T16:48:44.836Z,98161.33
2019-05-25T16:54:06.949Z,98160.22
2019-05-25T16:59:29.184Z,98156.64
2019-05-25T17:04:51.090Z,98167.77
2019-05-25T17:10:12.840Z,98162.30
2019-05-25T17:15:34.690Z,98167.95
2019-05-25T17:20:56.873Z,98169.56
2019-05-25T17:26:18.620Z,98169.56
2019-05-25T17:31:40.840Z,98180.25
2019-05-25T17:37:03.206Z,98182.41
2019-05-25T17:42:24.841Z,98182.41
2019-05-25T17:47:46.588Z,98182.16
2019-05-25T17:53:08.213Z,98200.36
2019-05-25T17:58:30.071Z,98209.05
2019-05-25T18:04:05.528Z,98206.65
2019-05-25T18:09:16.008Z,98198.89
2019-05-25T18:14:38.101Z,98213.28
2019-05-25T18:20:00.083Z,98212.09
2019-05-25T18:25:21.760Z,98219.77
2019-05-25T18:30:43.789Z,98226.28
2019-05-25T18:36:05.654Z,98224.95
2019-05-25T18:41:27.711Z,98238.79
2019-05-25T18:46:49.617Z,98245.30
2019-05-25T18:52:11.374Z,98256.27
2019-05-25T18:57:34.309Z,98260.63
2019-05-25T19:02:56.100Z,98264.10
2019-05-25T19:08:18.065Z,98273.56
2019-05-25T19:13:39.726Z,98282.86
2019-05-25T19:19:01.121Z,98292.45
2019-05-25T19:24:22.998Z,98292.22
2019-05-25T19:29:44.605Z,98292.42
2019-05-25T19:35:07.065Z,98297.46
2019-05-25T19:40:29.165Z,98311.91
2019-05-25T19:45:50.931Z,98314.73
2019-05-25T19:51:12.742Z,98312.61
2019-05-25T19:56:35.221Z,98308.84
2019-05-25T20:01:57.095Z,98322.93
2019-05-25T20:07:18.991Z,98326.24
2019-05-25T20:12:40.594Z,98324.05
2019-05-25T20:18:02.194Z,98326.34
2019-05-25T20:23:23.918Z,98338.50
2019-05-25T20:28:45.772Z,98324.50
2019-05-25T20:34:07.777Z,98323.34
2019-05-25T20:39:29.538Z,98318.69
2019-05-25T20:44:51.116Z,98315.55
2019-05-25T20:50:12.765Z,98329.67
2019-05-25T20:55:34.298Z,98339.93
2019-05-25T21:00:55.665Z,98337.81
2019-05-25T21:06:17.730Z,98328.70
2019-05-25T21:11:39.668Z,98335.57
2019-05-25T21:17:01.319Z,98335.24
2019-05-25T21:22:22.707Z,98330.94
2019-05-25T21:27:44.706Z,98338.02
2019-05-25T21:33:06.088Z,98336.31
2019-05-25T21:38:27.836Z,98343.01
2019-05-25T21:43:49.681Z,98342.08
2019-05-25T21:49:11.490Z,98344.99
2019-05-25T21:54:33.200Z,98344.14
2019-05-25T21:59:54.928Z,98347.97
2019-05-25T22:05:16.351Z,98351.92
2019-05-25T22:10:38.261Z,98352.15
2019-05-25T22:16:00.138Z,98352.48
2019-05-25T22:21:21.596Z,98343.20
2019-05-25T22:26:43.355Z,98343.75
2019-05-25T22:32:04.854Z,98347.25
2019-05-25T22:37:26.711Z,98339.93
2019-05-25T22:42:48.307Z,98337.52
2019-05-25T22:48:10.146Z,98348.36
2019-05-25T22:53:32.234Z,98358.44
2019-05-25T22:58:54.318Z,98366.47
2019-05-25T23:04:16.335Z,98368.51
2019-05-25T23:09:38.539Z,98368.75
2019-05-25T23:15:00.681Z,98277.18
2019-05-25T23:20:21.961Z,98361.91
2019-05-25T23:25:43.552Z,98355.25
2019-05-25T23:31:05.085Z,98356.70
2019-05-25T23:36:26.900Z,98353.59
2019-05-25T23:41:48.434Z,98346.02
2019-05-25T23:47:09.801Z,98357.66
2019-05-25T23:52:31.755Z,98361.64
2019-05-25T23:57:53.311Z,98364.98
